Time;durP1;ratioP1;P1;durP2;ratioP2;P2;SDS_P1;SDS_P2;PMS_P1;PMS_P2;Temp;Humidity;BMP_temperature;BMP_pressure;BME280_temperature;BME280_humidity;BME280_pressure;Samples;Min_cycle;Max_cycle;Signal;HPM_P1;HPM_P2
2023/04/30 00:01:38;;;;;;;5.70;5.20;;;;;;;;;;4977860;28;20043;-67
2023/04/30 00:04:04;;;;;;;5.65;5.25;;;;;;;;;;4977491;28;20258;-67
2023/04/30 00:06:29;;;;;;;5.63;5.18;;;;;;;;;;4984151;28;20508;-67
2023/04/30 00:08:55;;;;;;;5.80;5.30;;;;;;;;;;4970453;28;20034;-67
2023/04/30 00:11:21;;;;;;;5.35;4.95;;;;;;;;;;4979020;28;20030;-67
2023/04/30 00:13:46;;;;;;;6.05;5.60;;;;;;;;;;4980220;28;20045;-67
2023/04/30 00:16:12;;;;;;;5.63;5.18;;;;;;;;;;4978971;28;20116;-67
2023/04/30 00:18:38;;;;;;;5.30;4.90;;;;;;;;;;4979911;28;20044;-67
2023/04/30 00:21:03;;;;;;;6.00;5.50;;;;;;;;;;4979568;28;20444;-67
2023/04/30 00:23:29;;;;;;;5.68;5.18;;;;;;;;;;4981850;28;20073;-67
2023/04/30 00:25:55;;;;;;;6.28;5.72;;;;;;;;;;4977849;28;20053;-67
2023/04/30 00:28:20;;;;;;;4.93;4.53;;;;;;;;;;4967397;28;20117;-67
2023/04/30 00:30:46;;;;;;;5.18;4.78;;;;;;;;;;4974932;28;20053;-67
2023/04/30 00:33:12;;;;;;;5.18;4.70;;;;;;;;;;4957016;28;20037;-67
2023/04/30 00:35:37;;;;;;;6.07;5.57;;;;;;;;;;4972443;28;20049;-67
2023/04/30 00:38:04;;;;;;;5.85;5.35;;;;;;;;;;4977351;28;20066;-68
2023/04/30 00:40:29;;;;;;;6.40;5.88;;;;;;;;;;4958749;28;20069;-68
2023/04/30 00:42:55;;;;;;;6.18;5.50;;;;;;;;;;4957698;28;20056;-68
2023/04/30 00:45:22;;;;;;;5.82;5.38;;;;;;;;;;4956991;28;20126;-68
2023/04/30 00:47:48;;;;;;;6.07;5.47;;;;;;;;;;4960045;28;20165;-68
2023/04/30 00:50:15;;;;;;;5.75;5.25;;;;;;;;;;4960126;28;20042;-68
2023/04/30 00:52:41;;;;;;;5.63;5.22;;;;;;;;;;4959666;28;20038;-68
2023/04/30 00:55:08;;;;;;;5.95;5.38;;;;;;;;;;4941926;28;20043;-68
2023/04/30 00:57:35;;;;;;;7.22;6.03;;;;;;;;;;4979661;28;20629;-67
2023/04/30 01:00:01;;;;;;;6.25;5.70;;;;;;;;;;4963247;28;20617;-68
2023/04/30 01:02:28;;;;;;;8.82;5.55;;;;;;;;;;4980558;28;20022;-68
2023/04/30 01:04:55;;;;;;;8.02;5.70;;;;;;;;;;4957214;28;20493;-68
2023/04/30 01:07:21;;;;;;;5.35;4.90;;;;;;;;;;4972265;28;20057;-68
2023/04/30 01:09:47;;;;;;;5.72;5.28;;;;;;;;;;4980266;28;20046;-68
2023/04/30 01:12:20;;;;;;;5.93;5.43;;;;;;;;;;4981826;28;20042;-68
2023/04/30 01:15:07;;;;;;;5.85;5.28;;;;;;;;;;4962238;28;20038;-68
2023/04/30 01:17:38;;;;;;;6.25;5.65;;;;;;;;;;4980102;28;20085;-68
2023/04/30 01:20:06;;;;;;;6.32;5.82;;;;;;;;;;4968071;28;20121;-67
2023/04/30 01:22:45;;;;;;;7.88;5.72;;;;;;;;;;4962731;28;20018;-68
2023/04/30 01:25:39;;;;;;;7.93;6.05;;;;;;;;;;4962092;28;20034;-68
2023/04/30 01:28:23;;;;;;;7.00;6.10;;;;;;;;;;4976348;28;20065;-68
2023/04/30 01:30:50;;;;;;;5.90;5.40;;;;;;;;;;4959829;28;20828;-68
2023/04/30 01:33:16;;;;;;;5.85;5.10;;;;;;;;;;4973033;28;20050;-68
2023/04/30 01:36:11;;;;;;;5.97;5.38;;;;;;;;;;4962783;28;20046;-67
2023/04/30 01:39:10;;;;;;;5.72;5.22;;;;;;;;;;4965570;28;20057;-68
2023/04/30 01:41:38;;;;;;;;;;;;;;;;;;4975015;28;20486;-68
2023/04/30 01:44:28;;;;;;;5.82;5.30;;;;;;;;;;4975876;28;20285;-67
2023/04/30 01:47:02;;;;;;;;;;;;;;;;;;4963891;28;20481;-68
2023/04/30 01:49:28;;;;;;;5.95;5.38;;;;;;;;;;4976064;28;19920;-67
2023/04/30 01:52:13;;;;;;;6.15;5.65;;;;;;;;;;4975622;28;20031;-68
2023/04/30 01:55:12;;;;;;;6.53;5.95;;;;;;;;;;4976163;28;20586;-68
2023/04/30 01:57:44;;;;;;;6.47;5.88;;;;;;;;;;4950356;28;20042;-68
2023/04/30 02:00:11;;;;;;;5.93;5.25;;;;;;;;;;4974907;28;20043;-68
2023/04/30 02:02:40;;;;;;;5.80;5.30;;;;;;;;;;4960008;28;20035;-68
2023/04/30 02:05:06;;;;;;;7.30;6.60;;;;;;;;;;4970204;28;20449;-68
2023/04/30 02:07:40;;;;;;;8.00;6.00;;;;;;;;;;4976866;28;20066;-68
2023/04/30 02:10:07;;;;;;;7.40;5.95;;;;;;;;;;4957320;28;20038;-68
2023/04/30 02:12:33;;;;;;;5.70;5.20;;;;;;;;;;4958875;28;20041;-67
2023/04/30 02:14:59;;;;;;;5.95;5.35;;;;;;;;;;4955549;28;20061;-67
2023/04/30 02:17:24;;;;;;;6.53;5.95;;;;;;;;;;4960753;28;20657;-67
2023/04/30 02:19:50;;;;;;;6.85;5.40;;;;;;;;;;4969353;28;20117;-67
2023/04/30 02:22:16;;;;;;;7.55;5.60;;;;;;;;;;4977298;28;20386;-67
2023/04/30 02:24:41;;;;;;;6.85;6.25;;;;;;;;;;4977399;28;20042;-67
2023/04/30 02:27:07;;;;;;;7.13;5.90;;;;;;;;;;4960117;28;20037;-67
2023/04/30 02:29:33;;;;;;;6.32;5.72;;;;;;;;;;4971288;28;20065;-67
2023/04/30 02:31:58;;;;;;;6.88;6.18;;;;;;;;;;4966613;28;20048;-67
2023/04/30 02:34:24;;;;;;;6.80;5.90;;;;;;;;;;4977060;28;20118;-67
2023/04/30 02:36:50;;;;;;;6.35;5.85;;;;;;;;;;4976313;28;20039;-67
2023/04/30 02:39:16;;;;;;;6.03;5.53;;;;;;;;;;4978698;28;20042;-67
2023/04/30 02:41:41;;;;;;;6.65;6.10;;;;;;;;;;4960337;28;20129;-67
2023/04/30 02:44:07;;;;;;;8.30;6.22;;;;;;;;;;4955077;28;20077;-67
2023/04/30 02:46:33;;;;;;;5.95;5.43;;;;;;;;;;4974622;28;20042;-67
2023/04/30 02:48:58;;;;;;;6.93;6.28;;;;;;;;;;4959509;28;20041;-67
2023/04/30 02:51:24;;;;;;;6.63;5.75;;;;;;;;;;4980996;28;20029;-67
2023/04/30 02:53:50;;;;;;;7.13;6.43;;;;;;;;;;4955375;28;20047;-67
2023/04/30 02:56:16;;;;;;;5.97;5.47;;;;;;;;;;4973488;28;20501;-67
2023/04/30 02:58:41;;;;;;;7.68;5.82;;;;;;;;;;4977049;28;20046;-67
2023/04/30 03:01:07;;;;;;;6.15;5.57;;;;;;;;;;4962427;28;20034;-67
2023/04/30 03:03:32;;;;;;;5.80;5.40;;;;;;;;;;4953200;28;20034;-67
2023/04/30 03:05:58;;;;;;;6.90;6.07;;;;;;;;;;4963495;28;20030;-67
2023/04/30 03:08:24;;;;;;;6.22;5.38;;;;;;;;;;4958339;28;20051;-67
2023/04/30 03:10:51;;;;;;;7.32;5.75;;;;;;;;;;4960030;28;20042;-67
2023/04/30 03:13:17;;;;;;;6.50;5.85;;;;;;;;;;4974306;28;20039;-67
2023/04/30 03:15:42;;;;;;;7.05;6.15;;;;;;;;;;4981866;28;20034;-68
2023/04/30 03:18:09;;;;;;;10.80;6.63;;;;;;;;;;4958643;28;20117;-68
2023/04/30 03:20:34;;;;;;;8.10;6.40;;;;;;;;;;4969017;28;20038;-68
2023/04/30 03:23:00;;;;;;;6.78;6.18;;;;;;;;;;4975318;28;20034;-68
2023/04/30 03:25:26;;;;;;;7.05;5.75;;;;;;;;;;4962865;28;20070;-68
2023/04/30 03:27:51;;;;;;;6.88;6.20;;;;;;;;;;4953754;28;20038;-68
2023/04/30 03:30:17;;;;;;;8.52;6.70;;;;;;;;;;4976598;28;20136;-68
2023/04/30 03:32:43;;;;;;;7.93;7.13;;;;;;;;;;4964352;28;20545;-68
2023/04/30 03:35:08;;;;;;;6.25;5.65;;;;;;;;;;4981173;28;20500;-68
2023/04/30 03:37:34;;;;;;;6.05;5.50;;;;;;;;;;4982889;28;20042;-68
2023/04/30 03:40:00;;;;;;;5.28;4.95;;;;;;;;;;4960060;28;20121;-68
2023/04/30 03:42:25;;;;;;;5.75;5.25;;;;;;;;;;4981342;28;20658;-68
2023/04/30 03:44:51;;;;;;;6.35;5.75;;;;;;;;;;4975143;28;20104;-67
2023/04/30 03:47:17;;;;;;;6.15;5.65;;;;;;;;;;4983716;28;20031;-68
2023/04/30 03:49:42;;;;;;;9.98;6.03;;;;;;;;;;4966900;28;20506;-67
2023/04/30 03:52:08;;;;;;;6.95;6.22;;;;;;;;;;4980188;28;20125;-68
2023/04/30 03:54:33;;;;;;;6.68;6.07;;;;;;;;;;4957407;28;20126;-68
2023/04/30 03:57:03;;;;;;;7.18;6.47;;;;;;;;;;4962686;28;20645;-68
2023/04/30 03:59:30;;;;;;;6.50;5.90;;;;;;;;;;4960983;28;20110;-68
2023/04/30 04:01:56;;;;;;;6.63;5.50;;;;;;;;;;4956729;28;20102;-68
2023/04/30 04:04:21;;;;;;;8.13;6.32;;;;;;;;;;4946344;28;20034;-67
2023/04/30 04:06:47;;;;;;;6.35;5.75;;;;;;;;;;4966046;28;20541;-68
2023/04/30 04:09:13;;;;;;;6.40;5.80;;;;;;;;;;4958165;28;20051;-68
2023/04/30 04:11:40;;;;;;;9.43;6.75;;;;;;;;;;4958739;28;20134;-68
2023/04/30 04:14:06;;;;;;;6.68;6.07;;;;;;;;;;4977907;28;20117;-68
2023/04/30 04:16:31;;;;;;;6.50;5.63;;;;;;;;;;4979871;28;20040;-68
2023/04/30 04:18:57;;;;;;;5.82;5.32;;;;;;;;;;4961552;28;20030;-67
2023/04/30 04:21:22;;;;;;;6.75;5.97;;;;;;;;;;4959937;28;20594;-68
2023/04/30 04:23:49;;;;;;;8.25;6.72;;;;;;;;;;4985191;28;20557;-68
2023/04/30 04:26:18;;;;;;;9.18;6.30;;;;;;;;;;4954801;28;20038;-68
2023/04/30 04:28:45;;;;;;;8.00;5.65;;;;;;;;;;4946184;28;20043;-68
2023/04/30 04:31:10;;;;;;;9.13;6.40;;;;;;;;;;4963977;28;20505;-67
2023/04/30 04:33:36;;;;;;;6.80;6.13;;;;;;;;;;4978933;28;20137;-68
2023/04/30 04:36:02;;;;;;;6.68;6.07;;;;;;;;;;4970916;28;20038;-68
2023/04/30 04:38:28;;;;;;;8.05;6.28;;;;;;;;;;4977973;28;20047;-68
2023/04/30 04:40:55;;;;;;;5.20;4.72;;;;;;;;;;4959589;28;20038;-68
2023/04/30 04:43:21;;;;;;;7.78;6.05;;;;;;;;;;4955874;28;20041;-68
2023/04/30 04:45:47;;;;;;;8.55;6.72;;;;;;;;;;4962652;28;20035;-69
2023/04/30 04:48:14;;;;;;;7.18;6.45;;;;;;;;;;4960303;28;20126;-68
2023/04/30 04:50:40;;;;;;;8.93;5.78;;;;;;;;;;4963008;28;20038;-68
2023/04/30 04:53:05;;;;;;;6.80;6.10;;;;;;;;;;4960721;28;20068;-68
2023/04/30 04:55:31;;;;;;;7.25;6.55;;;;;;;;;;4976129;28;20045;-68
2023/04/30 04:57:56;;;;;;;7.53;6.72;;;;;;;;;;4961875;28;20685;-68
2023/04/30 05:00:22;;;;;;;7.50;6.80;;;;;;;;;;4977286;28;20584;-68
2023/04/30 05:02:48;;;;;;;6.45;5.85;;;;;;;;;;4962247;28;20502;-68
2023/04/30 05:05:14;;;;;;;11.55;7.82;;;;;;;;;;4983660;28;20093;-68
2023/04/30 05:07:41;;;;;;;6.78;6.20;;;;;;;;;;4958583;28;20042;-68
2023/04/30 05:10:07;;;;;;;7.72;6.80;;;;;;;;;;4953843;28;20110;-68
2023/04/30 05:12:33;;;;;;;8.15;7.35;;;;;;;;;;4963487;28;20038;-68
2023/04/30 05:14:58;;;;;;;6.30;5.80;;;;;;;;;;4981649;28;20035;-68
2023/04/30 05:17:24;;;;;;;6.63;5.93;;;;;;;;;;4976814;28;20118;-68
2023/04/30 05:19:50;;;;;;;6.22;5.60;;;;;;;;;;4971474;28;20129;-68
2023/04/30 05:22:16;;;;;;;8.15;6.07;;;;;;;;;;4980474;28;20034;-68
2023/04/30 05:24:42;;;;;;;9.43;5.93;;;;;;;;;;4979571;28;20148;-67
2023/04/30 05:27:08;;;;;;;7.82;6.03;;;;;;;;;;4973470;28;20030;-68
2023/04/30 05:29:33;;;;;;;7.63;6.65;;;;;;;;;;4976035;28;20726;-68
2023/04/30 05:32:00;;;;;;;6.00;5.50;;;;;;;;;;4977259;28;20515;-68
2023/04/30 05:34:26;;;;;;;10.10;6.78;;;;;;;;;;4996293;22;20115;31
2023/04/30 05:36:52;;;;;;;7.60;6.53;;;;;;;;;;4945087;28;20659;-67
2023/04/30 05:39:18;;;;;;;7.35;6.55;;;;;;;;;;4947113;29;20046;-67
2023/04/30 05:41:43;;;;;;;8.63;5.88;;;;;;;;;;4946467;29;20038;-67
2023/04/30 05:44:09;;;;;;;7.18;6.47;;;;;;;;;;4947779;29;20043;-67
2023/04/30 05:46:34;;;;;;;6.95;6.05;;;;;;;;;;4940491;28;20087;-67
2023/04/30 05:49:00;;;;;;;7.28;6.25;;;;;;;;;;4944766;28;20054;-67
2023/04/30 05:51:26;;;;;;;6.55;5.95;;;;;;;;;;4947678;28;20035;-67
2023/04/30 05:53:53;;;;;;;7.18;6.40;;;;;;;;;;4944723;29;20106;-67
2023/04/30 05:56:19;;;;;;;7.63;6.68;;;;;;;;;;4945239;28;20050;-67
2023/04/30 05:58:45;;;;;;;7.85;7.05;;;;;;;;;;4944380;28;20039;-67
2023/04/30 06:01:11;;;;;;;7.63;5.90;;;;;;;;;;4939698;29;20044;-67
2023/04/30 06:03:37;;;;;;;7.20;6.50;;;;;;;;;;4946832;29;20031;-68
2023/04/30 06:06:03;;;;;;;6.60;6.00;;;;;;;;;;4940524;28;20545;-67
2023/04/30 06:08:29;;;;;;;6.63;5.90;;;;;;;;;;4945126;29;20038;-67
2023/04/30 06:10:55;;;;;;;6.90;6.25;;;;;;;;;;4941696;28;20031;-67
2023/04/30 06:13:21;;;;;;;6.88;6.28;;;;;;;;;;4943242;29;20035;-67
2023/04/30 06:15:47;;;;;;;7.65;6.53;;;;;;;;;;4925209;29;20069;-67
2023/04/30 06:18:13;;;;;;;5.55;5.13;;;;;;;;;;4944618;28;20036;-67
2023/04/30 06:20:39;;;;;;;6.32;5.70;;;;;;;;;;4947330;29;20482;-67
2023/04/30 06:23:04;;;;;;;6.72;6.03;;;;;;;;;;4946826;29;20059;-67
2023/04/30 06:25:30;;;;;;;9.63;6.28;;;;;;;;;;4959031;28;20042;-67
2023/04/30 06:27:56;;;;;;;5.82;5.28;;;;;;;;;;4946327;28;20035;-67
2023/04/30 06:30:21;;;;;;;6.47;5.78;;;;;;;;;;4944417;29;20041;-67
2023/04/30 06:32:47;;;;;;;5.95;5.38;;;;;;;;;;4946402;29;20070;-67
2023/04/30 06:35:13;;;;;;;6.68;6.03;;;;;;;;;;4945872;29;20062;-67
2023/04/30 06:37:39;;;;;;;6.57;5.90;;;;;;;;;;4944103;28;20043;-67
2023/04/30 06:40:06;;;;;;;6.25;5.38;;;;;;;;;;4947862;29;20035;-67
2023/04/30 06:42:34;;;;;;;7.28;6.40;;;;;;;;;;4943121;28;20041;-67
2023/04/30 06:45:06;;;;;;;5.72;5.22;;;;;;;;;;4944971;28;20563;-67
2023/04/30 06:47:36;;;;;;;6.30;5.70;;;;;;;;;;4947332;29;20035;-67
2023/04/30 06:50:03;;;;;;;8.35;6.18;;;;;;;;;;4946205;29;20039;-67
2023/04/30 06:52:29;;;;;;;6.53;5.93;;;;;;;;;;4946613;28;20038;-67
2023/04/30 06:54:54;;;;;;;6.22;5.63;;;;;;;;;;4945250;29;20039;-67
2023/04/30 06:57:20;;;;;;;6.68;5.85;;;;;;;;;;4947257;28;20093;-67
2023/04/30 06:59:46;;;;;;;7.35;5.88;;;;;;;;;;4945430;29;20059;-67
2023/04/30 07:02:12;;;;;;;6.78;5.80;;;;;;;;;;4940362;28;20553;-67
2023/04/30 07:04:37;;;;;;;6.88;6.22;;;;;;;;;;4950167;28;20038;-67
2023/04/30 07:07:03;;;;;;;6.57;5.97;;;;;;;;;;4949774;29;20606;-67
2023/04/30 07:09:29;;;;;;;6.32;5.72;;;;;;;;;;4942974;28;20128;-67
2023/04/30 07:11:56;;;;;;;7.75;6.28;;;;;;;;;;4950186;28;20185;-67
2023/04/30 07:14:21;;;;;;;6.45;5.53;;;;;;;;;;4949308;29;20031;-67
2023/04/30 07:16:49;;;;;;;6.38;5.70;;;;;;;;;;4944778;29;20046;-67
2023/04/30 07:19:15;;;;;;;6.25;5.65;;;;;;;;;;4948075;28;20028;-67
2023/04/30 07:21:40;;;;;;;5.47;4.97;;;;;;;;;;4950688;29;20034;-67
2023/04/30 07:24:06;;;;;;;7.88;5.60;;;;;;;;;;4949055;29;20122;-67
2023/04/30 07:26:32;;;;;;;5.95;5.25;;;;;;;;;;4947503;28;20031;-67
2023/04/30 07:28:57;;;;;;;5.63;5.13;;;;;;;;;;4951357;29;20050;-67
2023/04/30 07:31:24;;;;;;;5.63;4.97;;;;;;;;;;4950538;29;20398;-67
2023/04/30 07:33:51;;;;;;;5.50;4.95;;;;;;;;;;4943285;28;20046;-67
2023/04/30 07:36:17;;;;;;;5.53;5.03;;;;;;;;;;4949886;29;20731;-67
2023/04/30 07:38:42;;;;;;;6.40;5.80;;;;;;;;;;4950324;29;20035;-67
2023/04/30 07:41:08;;;;;;;5.30;4.70;;;;;;;;;;4949124;29;20039;-68
2023/04/30 07:43:34;;;;;;;6.00;4.75;;;;;;;;;;4941094;28;20098;-67
2023/04/30 07:46:01;;;;;;;5.30;4.80;;;;;;;;;;4964360;28;20125;-68
2023/04/30 07:48:26;;;;;;;5.38;4.95;;;;;;;;;;4942952;29;20046;-68
2023/04/30 07:50:52;;;;;;;5.10;4.70;;;;;;;;;;4948195;28;20047;-68
2023/04/30 07:53:17;;;;;;;4.57;4.15;;;;;;;;;;4949987;29;20487;-68
2023/04/30 07:55:43;;;;;;;4.55;4.22;;;;;;;;;;4949590;29;20054;-67
2023/04/30 07:58:08;;;;;;;5.00;4.60;;;;;;;;;;4948881;29;20034;-68
2023/04/30 08:00:34;;;;;;;5.03;4.63;;;;;;;;;;4947024;28;20042;-68
2023/04/30 08:03:00;;;;;;;5.00;4.60;;;;;;;;;;4949953;29;20604;-68
2023/04/30 08:05:26;;;;;;;5.00;4.60;;;;;;;;;;4948101;29;20045;-67
2023/04/30 08:07:52;;;;;;;5.03;4.63;;;;;;;;;;4948521;28;20487;-67
2023/04/30 08:10:17;;;;;;;5.00;4.45;;;;;;;;;;4949074;29;20062;-67
2023/04/30 08:12:43;;;;;;;4.85;4.45;;;;;;;;;;4941745;28;20522;-67
2023/04/30 08:15:09;;;;;;;4.88;4.47;;;;;;;;;;4944791;28;20533;-67
2023/04/30 08:17:34;;;;;;;5.38;4.88;;;;;;;;;;4943870;29;20135;-67
2023/04/30 08:20:02;;;;;;;5.07;4.75;;;;;;;;;;4945409;29;20044;-67
2023/04/30 08:22:28;;;;;;;5.93;5.13;;;;;;;;;;4938529;28;20090;-66
2023/04/30 08:24:54;;;;;;;6.72;4.63;;;;;;;;;;4943906;29;20031;-67
2023/04/30 08:27:21;;;;;;;4.70;4.40;;;;;;;;;;4943740;28;20099;-66
2023/04/30 08:29:46;;;;;;;5.45;4.95;;;;;;;;;;4938632;28;20043;-67
2023/04/30 08:32:12;;;;;;;5.40;4.95;;;;;;;;;;4939765;29;20054;-66
2023/04/30 08:34:42;;;;;;;5.15;4.65;;;;;;;;;;4992444;22;20598;-69
2023/04/30 08:37:08;;;;;;;5.25;4.85;;;;;;;;;;5026653;28;20037;-69
2023/04/30 08:39:33;;;;;;;5.60;5.20;;;;;;;;;;5024541;28;20033;-67
2023/04/30 08:42:03;;;;;;;5.30;4.80;;;;;;;;;;5025272;28;20034;-68
2023/04/30 08:44:30;;;;;;;5.25;4.88;;;;;;;;;;5023299;28;20108;-68
2023/04/30 08:46:59;;;;;;;5.45;4.88;;;;;;;;;;5026183;28;20033;-68
2023/04/30 08:49:24;;;;;;;5.43;5.03;;;;;;;;;;5023559;28;20137;-68
2023/04/30 08:51:51;;;;;;;4.97;4.57;;;;;;;;;;5025207;28;20124;-68
2023/04/30 08:54:18;;;;;;;5.78;5.18;;;;;;;;;;5023994;28;20823;-68
2023/04/30 08:56:46;;;;;;;5.22;4.93;;;;;;;;;;5023201;28;20038;-68
2023/04/30 08:59:13;;;;;;;5.32;4.93;;;;;;;;;;5025726;28;20219;-68
2023/04/30 09:01:38;;;;;;;5.22;4.82;;;;;;;;;;5025064;28;20044;-68
2023/04/30 09:04:06;;;;;;;4.82;4.45;;;;;;;;;;5023088;28;20479;-68
2023/04/30 09:06:32;;;;;;;5.57;5.18;;;;;;;;;;5020684;28;20041;-68
2023/04/30 09:09:08;;;;;;;4.78;4.47;;;;;;;;;;5025165;28;20040;-68
2023/04/30 09:11:34;;;;;;;5.05;4.60;;;;;;;;;;5022549;28;20044;-68
2023/04/30 09:14:01;;;;;;;5.10;4.70;;;;;;;;;;5025049;28;20035;-68
2023/04/30 09:16:31;;;;;;;4.78;4.47;;;;;;;;;;5025695;28;20029;-68
2023/04/30 09:18:58;;;;;;;5.47;5.07;;;;;;;;;;5020656;28;20033;-68
2023/04/30 09:21:31;;;;;;;6.38;5.43;;;;;;;;;;5023781;28;20044;-68
2023/04/30 09:23:58;;;;;;;5.50;5.00;;;;;;;;;;5025127;28;20104;-68
2023/04/30 09:26:34;;;;;;;5.68;5.18;;;;;;;;;;5025005;28;20091;-68
2023/04/30 09:29:00;;;;;;;5.03;4.72;;;;;;;;;;5019289;28;20029;-67
2023/04/30 09:31:26;;;;;;;4.97;4.68;;;;;;;;;;5025641;28;20037;-68
2023/04/30 09:33:52;;;;;;;5.57;4.70;;;;;;;;;;5025272;28;20034;-68
2023/04/30 09:36:19;;;;;;;5.30;4.90;;;;;;;;;;5025579;28;20060;-68
2023/04/30 09:38:45;;;;;;;4.53;4.22;;;;;;;;;;5022738;28;20034;-68
2023/04/30 09:41:26;;;;;;;5.13;4.82;;;;;;;;;;5023960;28;20041;-68
2023/04/30 09:43:55;;;;;;;5.07;4.68;;;;;;;;;;5025647;28;20040;-67
2023/04/30 09:46:29;;;;;;;5.38;4.88;;;;;;;;;;5026364;28;20029;-70
2023/04/30 09:49:02;;;;;;;5.38;4.80;;;;;;;;;;5102278;27;20412;-72
2023/04/30 09:51:28;;;;;;;4.60;4.30;;;;;;;;;;5105737;28;20108;-71
2023/04/30 09:53:55;;;;;;;5.70;5.20;;;;;;;;;;5106636;28;20054;-71
2023/04/30 09:56:25;;;;;;;5.50;5.00;;;;;;;;;;5102023;28;20032;-71
2023/04/30 09:58:53;;;;;;;5.35;4.95;;;;;;;;;;5100189;28;20086;-71
2023/04/30 10:01:27;;;;;;;5.43;5.03;;;;;;;;;;5103942;28;20067;-72
2023/04/30 10:03:54;;;;;;;5.05;4.75;;;;;;;;;;5096881;28;20149;-71
2023/04/30 10:06:20;;;;;;;5.22;4.88;;;;;;;;;;5102991;28;20054;-72
2023/04/30 10:08:50;;;;;;;4.82;4.43;;;;;;;;;;5103406;28;20039;-71
2023/04/30 10:11:20;;;;;;;5.00;4.60;;;;;;;;;;5101498;28;20036;-71
2023/04/30 10:13:54;;;;;;;4.97;4.63;;;;;;;;;;5096788;28;20067;-71
2023/04/30 10:16:26;;;;;;;5.38;4.97;;;;;;;;;;5099344;28;20094;-71
2023/04/30 10:18:53;;;;;;;5.55;4.60;;;;;;;;;;5091457;28;20101;-71
2023/04/30 10:21:23;;;;;;;4.85;4.55;;;;;;;;;;5100822;28;20075;-71
2023/04/30 10:23:53;;;;;;;4.40;4.13;;;;;;;;;;5099084;28;20683;-71
2023/04/30 10:26:19;;;;;;;5.20;4.70;;;;;;;;;;5093921;28;20487;-71
2023/04/30 10:28:47;;;;;;;4.57;4.28;;;;;;;;;;5096882;28;20073;-71
2023/04/30 10:31:13;;;;;;;5.05;4.65;;;;;;;;;;5097628;28;20406;-71
2023/04/30 10:33:54;;;;;;;4.43;4.13;;;;;;;;;;5097839;28;20044;-71
2023/04/30 10:36:40;;;;;;;4.93;4.63;;;;;;;;;;5097006;28;20032;-71
2023/04/30 10:39:07;;;;;;;5.00;4.55;;;;;;;;;;5097496;28;20042;-71
2023/04/30 10:41:33;;;;;;;4.78;4.47;;;;;;;;;;5095689;28;20487;-71
2023/04/30 10:44:01;;;;;;;5.50;4.57;;;;;;;;;;5096638;28;20068;-71
2023/04/30 10:46:27;;;;;;;4.70;4.30;;;;;;;;;;5103456;28;20085;-71
2023/04/30 10:48:56;;;;;;;5.13;4.72;;;;;;;;;;5104016;27;20063;-71
2023/04/30 10:51:22;;;;;;;5.43;4.97;;;;;;;;;;5096819;28;20478;-72
2023/04/30 10:53:52;;;;;;;5.47;5.03;;;;;;;;;;5099974;28;20055;-71
2023/04/30 10:56:32;;;;;;;4.78;4.47;;;;;;;;;;5090955;28;20536;-71
2023/04/30 10:59:00;;;;;;;4.70;4.40;;;;;;;;;;5094488;28;20486;-71
2023/04/30 11:01:25;;;;;;;5.10;4.68;;;;;;;;;;5089200;28;20073;-71
2023/04/30 11:04:08;;;;;;;4.80;4.50;;;;;;;;;;5082004;28;20043;-71
2023/04/30 11:06:55;;;;;;;4.68;4.22;;;;;;;;;;5081318;28;20046;-71
2023/04/30 11:09:36;;;;;;;3.92;3.72;;;;;;;;;;5085660;28;20081;-71
2023/04/30 11:12:03;;;;;;;6.10;5.50;;;;;;;;;;5084259;28;20046;-71
2023/04/30 11:14:32;;;;;;;12.20;10.13;;;;;;;;;;5082840;28;20115;-71
2023/04/30 11:16:58;;;;;;;5.18;4.75;;;;;;;;;;5087259;28;20040;-71
2023/04/30 11:19:26;;;;;;;10.77;8.82;;;;;;;;;;5088298;28;20036;-69
2023/04/30 11:22:04;;;;;;;5.95;5.45;;;;;;;;;;5080991;28;20195;-72
2023/04/30 11:24:57;;;;;;;5.05;4.65;;;;;;;;;;5086480;28;20102;-71
2023/04/30 11:27:31;;;;;;;4.93;4.63;;;;;;;;;;5082984;28;20032;-72
2023/04/30 11:29:57;;;;;;;5.85;5.35;;;;;;;;;;5082988;28;20055;-71
2023/04/30 11:32:26;;;;;;;6.00;5.40;;;;;;;;;;5089992;28;20038;-71
2023/04/30 11:34:52;;;;;;;5.13;4.72;;;;;;;;;;5077976;28;20522;-71
2023/04/30 11:37:20;;;;;;;8.40;6.43;;;;;;;;;;5099405;22;20052;-68
2023/04/30 11:39:47;;;;;;;4.93;4.53;;;;;;;;;;5089433;28;20040;-68
2023/04/30 11:42:20;;;;;;;4.80;4.43;;;;;;;;;;5094579;28;20453;-68
2023/04/30 11:44:46;;;;;;;5.30;4.90;;;;;;;;;;5085144;28;20136;-68
2023/04/30 11:47:15;;;;;;;7.10;5.68;;;;;;;;;;5089372;28;20491;-68
2023/04/30 11:49:42;;;;;;;5.25;4.88;;;;;;;;;;5088248;28;20032;-68
2023/04/30 11:52:08;;;;;;;6.05;5.55;;;;;;;;;;5087972;28;20036;-68
2023/04/30 11:54:37;;;;;;;5.45;4.95;;;;;;;;;;5089041;28;20498;-68
2023/04/30 11:57:04;;;;;;;8.77;6.60;;;;;;;;;;5089238;28;20044;-68
2023/04/30 11:59:30;;;;;;;5.97;4.57;;;;;;;;;;5085559;28;20042;-68
2023/04/30 12:01:57;;;;;;;5.43;4.78;;;;;;;;;;5089017;28;20035;-68
2023/04/30 12:04:22;;;;;;;4.57;4.18;;;;;;;;;;5089136;28;20031;-68
2023/04/30 12:06:49;;;;;;;6.10;5.50;;;;;;;;;;5089215;28;20467;-68
2023/04/30 12:09:14;;;;;;;5.93;4.32;;;;;;;;;;5086903;28;20031;-68
2023/04/30 12:11:40;;;;;;;5.05;4.57;;;;;;;;;;5088999;28;20544;-68
2023/04/30 12:14:11;;;;;;;7.18;5.95;;;;;;;;;;5086238;28;20116;-68
2023/04/30 12:16:50;;;;;;;5.35;4.85;;;;;;;;;;5084123;28;20505;-69
2023/04/30 12:19:17;;;;;;;10.23;7.00;;;;;;;;;;5088041;28;20504;-68
2023/04/30 12:21:47;;;;;;;8.55;5.85;;;;;;;;;;5089259;28;20024;-68
2023/04/30 12:24:18;;;;;;;12.27;7.20;;;;;;;;;;5076186;28;20066;-68
2023/04/30 12:26:44;;;;;;;5.60;5.10;;;;;;;;;;5088431;28;20067;-68
2023/04/30 12:29:13;;;;;;;4.70;4.40;;;;;;;;;;5064857;28;20039;-66
2023/04/30 12:31:39;;;;;;;5.13;4.72;;;;;;;;;;5081627;28;20032;-67
2023/04/30 12:34:06;;;;;;;7.05;5.18;;;;;;;;;;5077927;28;20094;-67
2023/04/30 12:36:35;;;;;;;5.35;4.80;;;;;;;;;;5081255;28;20953;-67
2023/04/30 12:39:15;;;;;;;5.60;5.10;;;;;;;;;;5080721;28;20024;-67
2023/04/30 12:41:43;;;;;;;6.75;5.03;;;;;;;;;;5081286;28;20078;-67
2023/04/30 12:44:19;;;;;;;5.63;5.13;;;;;;;;;;5075714;28;20032;-68
2023/04/30 12:46:46;;;;;;;5.57;5.18;;;;;;;;;;5076289;28;20450;-68
2023/04/30 12:49:21;;;;;;;5.55;5.10;;;;;;;;;;5080728;28;20040;-68
2023/04/30 12:51:47;;;;;;;5.15;4.80;;;;;;;;;;5080973;28;20035;-67
2023/04/30 12:54:13;;;;;;;5.47;4.88;;;;;;;;;;5078826;28;20039;-65
2023/04/30 12:56:39;;;;;;;5.90;5.40;;;;;;;;;;5081909;28;20066;-67
2023/04/30 12:59:14;;;;;;;4.85;4.47;;;;;;;;;;5080813;28;20028;-65
2023/04/30 13:01:44;;;;;;;4.80;4.50;;;;;;;;;;5080252;28;20031;-67
2023/04/30 13:04:10;;;;;;;5.80;5.25;;;;;;;;;;5079365;28;20032;-65
2023/04/30 13:06:35;;;;;;;5.13;4.72;;;;;;;;;;5081469;28;20105;-66
2023/04/30 13:09:01;;;;;;;6.57;4.78;;;;;;;;;;5080732;28;20035;-66
2023/04/30 13:11:27;;;;;;;5.40;4.90;;;;;;;;;;5079033;28;20046;-66
2023/04/30 13:13:54;;;;;;;5.18;4.88;;;;;;;;;;5079603;28;20407;-66
2023/04/30 13:16:20;;;;;;;6.88;4.68;;;;;;;;;;5078763;28;20581;-67
2023/04/30 13:18:45;;;;;;;5.63;4.65;;;;;;;;;;5078990;28;20024;-67
2023/04/30 13:21:11;;;;;;;4.55;4.25;;;;;;;;;;5080398;28;20044;-66
2023/04/30 13:23:37;;;;;;;5.00;4.60;;;;;;;;;;5081069;28;20032;-67
2023/04/30 13:26:02;;;;;;;5.00;4.63;;;;;;;;;;5080595;28;20040;-67
2023/04/30 13:28:28;;;;;;;5.50;5.00;;;;;;;;;;5077508;28;20476;-67
2023/04/30 13:30:53;;;;;;;4.00;3.80;;;;;;;;;;5080898;28;20044;-67
2023/04/30 13:33:19;;;;;;;4.78;4.47;;;;;;;;;;5079869;28;20039;-67
2023/04/30 13:35:46;;;;;;;4.75;4.45;;;;;;;;;;5074928;28;20044;-67
2023/04/30 13:38:12;;;;;;;5.10;4.78;;;;;;;;;;5078477;28;20032;-66
2023/04/30 13:40:37;;;;;;;5.63;5.25;;;;;;;;;;5078218;28;20024;-67
2023/04/30 13:43:03;;;;;;;8.15;7.40;;;;;;;;;;5078794;28;20122;-66
2023/04/30 13:45:29;;;;;;;4.65;4.35;;;;;;;;;;5076452;28;20038;-67
2023/04/30 13:47:55;;;;;;;7.65;6.80;;;;;;;;;;5078545;28;20455;-67
2023/04/30 13:50:20;;;;;;;6.05;5.55;;;;;;;;;;5078783;28;20042;-68
2023/04/30 13:52:46;;;;;;;5.30;4.90;;;;;;;;;;5079560;28;20884;-68
2023/04/30 13:55:12;;;;;;;5.90;5.40;;;;;;;;;;5076191;28;20131;-67
2023/04/30 13:57:38;;;;;;;4.85;4.45;;;;;;;;;;5078033;28;21046;-67
2023/04/30 14:00:05;;;;;;;9.13;8.32;;;;;;;;;;5080351;28;20047;-67
2023/04/30 14:02:33;;;;;;;;;;;;;;;;;;5080030;28;20039;-67
2023/04/30 14:05:02;;;;;;;5.38;5.00;;;;;;;;;;5076782;28;20417;-67
2023/04/30 14:07:27;;;;;;;8.45;7.07;;;;;;;;;;5078679;28;20061;-66
2023/04/30 14:09:53;;;;;;;5.70;5.30;;;;;;;;;;5079733;28;20040;-67
2023/04/30 14:12:20;;;;;;;5.68;5.25;;;;;;;;;;5077851;28;20185;-66
2023/04/30 14:14:46;;;;;;;4.88;4.57;;;;;;;;;;5078365;28;20834;-66
2023/04/30 14:17:11;;;;;;;4.53;4.28;;;;;;;;;;5079208;28;20040;-66
2023/04/30 14:19:37;;;;;;;5.82;5.43;;;;;;;;;;5061391;28;20032;-66
2023/04/30 14:22:03;;;;;;;5.32;4.93;;;;;;;;;;5078368;28;20040;-66
2023/04/30 14:24:28;;;;;;;5.22;4.82;;;;;;;;;;5061212;28;20085;-66
2023/04/30 14:26:54;;;;;;;4.85;4.55;;;;;;;;;;5079847;28;20036;-66
2023/04/30 14:29:19;;;;;;;5.22;4.82;;;;;;;;;;5078301;28;20028;-66
2023/04/30 14:31:45;;;;;;;5.82;5.43;;;;;;;;;;5077029;28;20040;-66
2023/04/30 14:34:11;;;;;;;4.88;4.57;;;;;;;;;;5079883;28;20070;-65
2023/04/30 14:36:37;;;;;;;4.90;4.60;;;;;;;;;;5083560;28;20151;-66
2023/04/30 14:39:03;;;;;;;5.32;4.93;;;;;;;;;;5064316;28;20118;-66
2023/04/30 14:41:34;;;;;;;5.05;4.70;;;;;;;;;;5080849;28;20028;-66
2023/04/30 14:43:59;;;;;;;5.50;5.10;;;;;;;;;;5082011;28;20036;-66
2023/04/30 14:46:26;;;;;;;5.13;4.72;;;;;;;;;;5083403;28;20738;-66